Time;durP1;ratioP1;P1;durP2;ratioP2;P2;SDS_P1;SDS_P2;PMS_P1;PMS_P2;Temp;Humidity;BMP_temperature;BMP_pressure;BME280_temperature;BME280_humidity;BME280_pressure;Samples;Min_cycle;Max_cycle;Signal;HPM_P1;HPM_P2
2022/08/05 00:01:25;;;;;;;11.32;2.05;;;;;;;;;;5075330;28;20557;-71
2022/08/05 00:03:51;;;;;;;8.60;1.58;;;;;;;;;;5089448;28;20484;-72
2022/08/05 00:06:18;;;;;;;10.13;1.50;;;;;;;;;;5085675;28;20024;-73
2022/08/05 00:08:44;;;;;;;11.45;2.08;;;;;;;;;;5085369;28;20027;-72
2022/08/05 00:11:13;;;;;;;7.85;1.95;;;;;;;;;;5087812;28;20114;-71
2022/08/05 00:13:40;;;;;;;12.38;2.20;;;;;;;;;;5091668;28;21204;-72
2022/08/05 00:16:11;;;;;;;11.65;1.50;;;;;;;;;;5090735;28;20043;-71
2022/08/05 00:18:38;;;;;;;11.07;1.38;;;;;;;;;;5089016;28;20030;-72
2022/08/05 00:21:04;;;;;;;7.90;1.38;;;;;;;;;;5088545;28;20587;-72
2022/08/05 00:23:30;;;;;;;10.48;1.40;;;;;;;;;;5095494;28;20062;-71
2022/08/05 00:25:57;;;;;;;7.50;1.83;;;;;;;;;;5090513;28;20492;-71
2022/08/05 00:28:23;;;;;;;11.65;2.08;;;;;;;;;;5090386;28;20725;-71
2022/08/05 00:30:49;;;;;;;11.57;1.60;;;;;;;;;;5090260;28;20115;-71
2022/08/05 00:33:18;;;;;;;12.57;1.65;;;;;;;;;;5088541;28;20122;-71
2022/08/05 00:35:44;;;;;;;6.32;1.42;;;;;;;;;;5087332;28;20035;-71
2022/08/05 00:38:10;;;;;;;11.57;1.98;;;;;;;;;;5094435;28;20085;-71
2022/08/05 00:40:45;;;;;;;9.07;1.52;;;;;;;;;;5093744;28;20119;-72
2022/08/05 00:43:12;;;;;;;6.75;1.45;;;;;;;;;;5071347;28;20039;-69
2022/08/05 00:45:38;;;;;;;24.00;3.85;;;;;;;;;;5093482;28;20023;-73
2022/08/05 00:48:04;;;;;;;8.77;2.22;;;;;;;;;;5093606;28;20063;-72
2022/08/05 00:50:30;;;;;;;12.38;1.65;;;;;;;;;;5089439;28;20032;-71
2022/08/05 00:52:56;;;;;;;11.77;1.55;;;;;;;;;;5091049;28;20019;-71
2022/08/05 00:55:23;;;;;;;10.10;2.42;;;;;;;;;;5082580;28;20499;-71
2022/08/05 00:57:49;;;;;;;9.95;1.67;;;;;;;;;;5084983;28;20119;-72
2022/08/05 01:00:15;;;;;;;8.23;2.15;;;;;;;;;;5067225;28;20039;-71
2022/08/05 01:02:41;;;;;;;5.57;1.95;;;;;;;;;;5085588;28;20316;-70
2022/08/05 01:05:07;;;;;;;10.32;2.25;;;;;;;;;;5086345;28;20396;-70
2022/08/05 01:07:33;;;;;;;15.10;1.83;;;;;;;;;;5082617;28;20033;-71
2022/08/05 01:10:00;;;;;;;11.45;2.05;;;;;;;;;;5083815;28;20039;-71
2022/08/05 01:12:26;;;;;;;9.85;1.80;;;;;;;;;;5087782;28;20027;-71
2022/08/05 01:15:04;;;;;;;9.70;1.83;;;;;;;;;;5088789;28;20543;-71
2022/08/05 01:17:50;;;;;;;10.93;1.95;;;;;;;;;;5086011;28;20020;-71
2022/08/05 01:20:35;;;;;;;9.32;1.67;;;;;;;;;;5089096;28;20078;-71
2022/08/05 01:23:15;;;;;;;8.38;2.17;;;;;;;;;;5085643;28;20491;-69
2022/08/05 01:25:44;;;;;;;6.45;1.83;;;;;;;;;;5090335;28;20039;-69
2022/08/05 01:28:16;;;;;;;8.68;1.40;;;;;;;;;;5088789;28;20111;-70
2022/08/05 01:31:12;;;;;;;11.23;1.80;;;;;;;;;;5087646;28;20032;-71
2022/08/05 01:33:56;;;;;;;12.57;1.83;;;;;;;;;;5040892;28;20138;-71
2022/08/05 01:36:24;;;;;;;15.63;1.95;;;;;;;;;;5086871;28;20024;-71
2022/08/05 01:38:51;;;;;;;12.05;1.88;;;;;;;;;;5091656;28;20036;-72
2022/08/05 01:41:20;;;;;;;9.13;1.42;;;;;;;;;;5088663;28;20036;-72
2022/08/05 01:43:48;;;;;;;10.10;1.88;;;;;;;;;;5090718;28;20027;-67
2022/08/05 01:46:14;;;;;;;10.88;1.52;;;;;;;;;;5085968;28;20024;-70
2022/08/05 01:48:41;;;;;;;11.68;1.73;;;;;;;;;;5086788;28;20020;-70
2022/08/05 01:51:08;;;;;;;12.82;1.75;;;;;;;;;;5090565;28;20097;-70
2022/08/05 01:53:34;;;;;;;10.15;1.98;;;;;;;;;;5091468;28;20063;-70
2022/08/05 01:56:02;;;;;;;4.30;1.60;;;;;;;;;;5068184;28;20373;-70
2022/08/05 01:58:28;;;;;;;13.68;2.25;;;;;;;;;;5069250;28;20466;-70
2022/08/05 02:00:56;;;;;;;6.20;1.35;;;;;;;;;;5088908;28;20028;-70
2022/08/05 02:03:24;;;;;;;11.70;1.83;;;;;;;;;;5076131;28;20038;-70
2022/08/05 02:05:51;;;;;;;11.18;1.50;;;;;;;;;;5091102;28;20098;-70
2022/08/05 02:08:17;;;;;;;9.77;1.85;;;;;;;;;;5082456;28;20489;-71
2022/08/05 02:10:46;;;;;;;6.97;1.80;;;;;;;;;;5086232;28;20029;-71
2022/08/05 02:13:14;;;;;;;10.10;2.80;;;;;;;;;;5088853;28;20085;-71
2022/08/05 02:15:44;;;;;;;5.78;1.85;;;;;;;;;;5088621;28;20400;-71
2022/08/05 02:18:14;;;;;;;9.27;1.58;;;;;;;;;;5086396;28;20028;-71
2022/08/05 02:20:45;;;;;;;6.45;2.00;;;;;;;;;;5084404;28;20039;-71
2022/08/05 02:23:12;;;;;;;7.25;1.73;;;;;;;;;;5090151;28;20024;-72
2022/08/05 02:25:40;;;;;;;23.08;4.50;;;;;;;;;;5084710;28;20031;-70
2022/08/05 02:28:07;;;;;;;12.57;1.80;;;;;;;;;;5088471;28;20028;-71
2022/08/05 02:30:44;;;;;;;11.45;2.15;;;;;;;;;;5088687;28;20050;-71
2022/08/05 02:33:13;;;;;;;13.02;2.53;;;;;;;;;;5088393;28;20423;-71
2022/08/05 02:35:40;;;;;;;7.78;1.83;;;;;;;;;;5089261;28;20510;-71
2022/08/05 02:38:06;;;;;;;10.63;2.22;;;;;;;;;;5084196;28;20039;-71
2022/08/05 02:40:33;;;;;;;14.05;1.80;;;;;;;;;;5090018;28;20025;-71
2022/08/05 02:43:00;;;;;;;7.03;1.40;;;;;;;;;;5086424;28;20039;-71
2022/08/05 02:45:27;;;;;;;10.93;2.15;;;;;;;;;;5084939;28;20078;-71
2022/08/05 02:47:54;;;;;;;9.27;1.70;;;;;;;;;;5080747;28;20024;-71
2022/08/05 02:50:21;;;;;;;11.48;2.13;;;;;;;;;;5086169;28;20081;-70
2022/08/05 02:52:47;;;;;;;9.25;1.80;;;;;;;;;;5090859;28;20028;-71
2022/08/05 02:55:14;;;;;;;8.82;1.98;;;;;;;;;;5084864;28;20032;-71
2022/08/05 02:57:40;;;;;;;10.98;1.88;;;;;;;;;;5069597;28;20538;-71
2022/08/05 03:00:07;;;;;;;12.07;2.63;;;;;;;;;;5090017;28;20028;-71
2022/08/05 03:02:37;;;;;;;12.02;2.22;;;;;;;;;;5091923;28;20387;-71
2022/08/05 03:05:04;;;;;;;10.38;2.92;;;;;;;;;;5093176;28;20046;-71
2022/08/05 03:07:31;;;;;;;7.40;1.70;;;;;;;;;;5092875;28;20386;-71
2022/08/05 03:09:57;;;;;;;6.82;1.60;;;;;;;;;;5073486;28;20063;-71
2022/08/05 03:12:36;;;;;;;6.75;2.03;;;;;;;;;;5085923;28;20043;-71
2022/08/05 03:15:04;;;;;;;8.88;2.25;;;;;;;;;;5090215;28;20040;-70
2022/08/05 03:17:30;;;;;;;4.18;1.45;;;;;;;;;;5089714;28;20496;-69
2022/08/05 03:19:56;;;;;;;8.07;1.67;;;;;;;;;;5093831;28;20020;-69
2022/08/05 03:22:22;;;;;;;9.13;1.80;;;;;;;;;;5094709;28;20412;-69
2022/08/05 03:24:49;;;;;;;8.38;1.65;;;;;;;;;;5090187;28;20064;-69
2022/08/05 03:27:15;;;;;;;9.00;2.97;;;;;;;;;;5092378;28;20402;-69
2022/08/05 03:29:42;;;;;;;14.80;1.92;;;;;;;;;;5090472;28;20127;-69
2022/08/05 03:32:08;;;;;;;9.07;1.60;;;;;;;;;;5091960;28;20103;-69
2022/08/05 03:34:35;;;;;;;7.43;2.17;;;;;;;;;;5091560;28;20028;-69
2022/08/05 03:37:01;;;;;;;16.83;1.90;;;;;;;;;;5091895;28;20031;-69
2022/08/05 03:39:28;;;;;;;11.10;2.17;;;;;;;;;;5091218;28;20031;-69
2022/08/05 03:41:54;;;;;;;9.90;1.83;;;;;;;;;;5090705;28;20031;-69
2022/08/05 03:44:21;;;;;;;11.50;2.53;;;;;;;;;;5089187;28;20527;-69
2022/08/05 03:46:47;;;;;;;6.78;1.83;;;;;;;;;;5094904;28;20017;-69
2022/08/05 03:49:13;;;;;;;7.15;1.70;;;;;;;;;;5091174;28;20027;-69
2022/08/05 03:51:43;;;;;;;10.52;2.13;;;;;;;;;;5074389;28;20408;-72
2022/08/05 03:54:15;;;;;;;6.72;1.50;;;;;;;;;;5086214;28;21889;-72
2022/08/05 03:56:42;;;;;;;6.40;1.85;;;;;;;;;;5078979;28;20039;-72
2022/08/05 03:59:21;;;;;;;7.70;1.58;;;;;;;;;;5090768;28;20369;-71
2022/08/05 04:01:48;;;;;;;5.55;1.65;;;;;;;;;;5085320;28;20023;-71
2022/08/05 04:04:15;;;;;;;11.77;2.63;;;;;;;;;;5089955;28;20039;-71
2022/08/05 04:06:42;;;;;;;9.45;1.52;;;;;;;;;;5087514;28;20125;-72
2022/08/05 04:09:08;;;;;;;16.58;1.98;;;;;;;;;;5089030;28;20621;-72
2022/08/05 04:11:35;;;;;;;13.13;2.15;;;;;;;;;;5089200;28;20056;-72
2022/08/05 04:14:02;;;;;;;11.00;1.85;;;;;;;;;;5089537;28;20024;-72
2022/08/05 04:16:28;;;;;;;6.65;1.50;;;;;;;;;;5089175;28;20028;-72
2022/08/05 04:18:54;;;;;;;10.90;1.45;;;;;;;;;;5089396;28;20024;-72
2022/08/05 04:21:21;;;;;;;18.52;2.30;;;;;;;;;;5092349;28;20099;-72
2022/08/05 04:23:47;;;;;;;9.32;2.47;;;;;;;;;;5093882;28;20024;-73
2022/08/05 04:26:14;;;;;;;7.20;1.70;;;;;;;;;;5090439;28;20020;-73
2022/08/05 04:28:40;;;;;;;5.57;1.95;;;;;;;;;;5089763;28;20043;-73
2022/08/05 04:31:06;;;;;;;9.88;2.33;;;;;;;;;;5088251;28;20031;-73
2022/08/05 04:33:32;;;;;;;8.05;1.98;;;;;;;;;;5088901;28;20016;-73
2022/08/05 04:35:59;;;;;;;10.15;3.05;;;;;;;;;;5081692;28;20024;-73
2022/08/05 04:38:25;;;;;;;9.55;1.88;;;;;;;;;;5072060;28;20399;-73
2022/08/05 04:40:51;;;;;;;5.57;1.40;;;;;;;;;;5088710;28;20036;-72
2022/08/05 04:43:17;;;;;;;5.68;1.65;;;;;;;;;;5085566;28;20044;-72
2022/08/05 04:45:43;;;;;;;9.32;1.40;;;;;;;;;;5086224;28;20666;-72
2022/08/05 04:48:11;;;;;;;9.90;2.10;;;;;;;;;;5091798;28;20491;-72
2022/08/05 04:50:40;;;;;;;13.25;1.80;;;;;;;;;;5087212;28;20017;-72
2022/08/05 04:53:07;;;;;;;8.95;1.73;;;;;;;;;;5091122;28;20038;-71
2022/08/05 04:55:33;;;;;;;9.32;2.40;;;;;;;;;;5088037;28;20455;-71
2022/08/05 04:57:59;;;;;;;8.05;1.73;;;;;;;;;;5089414;28;20055;-71
2022/08/05 05:00:25;;;;;;;8.57;2.13;;;;;;;;;;5086167;28;20039;-72
2022/08/05 05:02:51;;;;;;;6.35;2.35;;;;;;;;;;5087198;28;20032;-72
2022/08/05 05:05:17;;;;;;;15.48;2.28;;;;;;;;;;5091428;28;20042;-72
2022/08/05 05:07:44;;;;;;;8.40;1.88;;;;;;;;;;5091192;28;20016;-72
2022/08/05 05:10:10;;;;;;;8.13;1.42;;;;;;;;;;5091463;28;20566;-72
2022/08/05 05:12:36;;;;;;;13.35;1.48;;;;;;;;;;5089069;28;20098;-70
2022/08/05 05:15:02;;;;;;;11.80;1.85;;;;;;;;;;5090721;28;20048;-71
2022/08/05 05:17:28;;;;;;;11.52;2.58;;;;;;;;;;5090376;28;20081;-71
2022/08/05 05:19:55;;;;;;;13.60;1.65;;;;;;;;;;5089975;28;20201;-71
2022/08/05 05:22:21;;;;;;;11.60;1.95;;;;;;;;;;5086750;28;20039;-71
2022/08/05 05:24:47;;;;;;;13.18;2.97;;;;;;;;;;5086744;28;20459;-71
2022/08/05 05:27:13;;;;;;;14.57;3.08;;;;;;;;;;5088359;28;20035;-71
2022/08/05 05:29:39;;;;;;;10.45;1.75;;;;;;;;;;5091215;28;20063;-71
2022/08/05 05:32:05;;;;;;;12.02;1.60;;;;;;;;;;5087461;28;20500;-71
2022/08/05 05:34:32;;;;;;;7.78;1.95;;;;;;;;;;5086730;28;20031;-72
2022/08/05 05:36:58;;;;;;;8.77;1.92;;;;;;;;;;5080734;28;20480;-72
2022/08/05 05:39:24;;;;;;;12.05;2.13;;;;;;;;;;5087606;28;20021;-71
2022/08/05 05:41:50;;;;;;;9.20;1.48;;;;;;;;;;5088415;28;20028;-71
2022/08/05 05:44:16;;;;;;;11.55;2.40;;;;;;;;;;5085079;28;20040;-72
2022/08/05 05:46:42;;;;;;;4.85;1.65;;;;;;;;;;5090438;28;20387;-71
2022/08/05 05:49:08;;;;;;;4.55;1.60;;;;;;;;;;5086551;28;20024;-71
2022/08/05 05:51:34;;;;;;;9.15;2.05;;;;;;;;;;5087679;28;20028;-71
2022/08/05 05:54:01;;;;;;;14.27;1.90;;;;;;;;;;5085163;28;20020;-71
2022/08/05 05:56:28;;;;;;;9.13;2.15;;;;;;;;;;5089676;28;20039;-71
2022/08/05 05:58:54;;;;;;;11.48;2.13;;;;;;;;;;5069441;28;20032;-71
2022/08/05 06:01:20;;;;;;;17.83;2.20;;;;;;;;;;5083295;28;20135;-71
2022/08/05 06:03:46;;;;;;;6.20;1.95;;;;;;;;;;5086714;28;20027;-71
2022/08/05 06:06:12;;;;;;;9.20;1.73;;;;;;;;;;5072709;28;20552;-71
2022/08/05 06:08:38;;;;;;;11.95;1.90;;;;;;;;;;5085413;28;20032;-71
2022/08/05 06:11:04;;;;;;;9.32;2.33;;;;;;;;;;5077985;28;20047;-71
2022/08/05 06:13:31;;;;;;;10.25;2.10;;;;;;;;;;5083720;28;20024;-71
2022/08/05 06:15:57;;;;;;;11.77;2.10;;;;;;;;;;5082847;28;20071;-71
2022/08/05 06:18:23;;;;;;;10.45;2.42;;;;;;;;;;5089321;28;20032;-71
2022/08/05 06:20:49;;;;;;;9.63;2.00;;;;;;;;;;5081690;28;20078;-71
2022/08/05 06:23:15;;;;;;;10.85;1.83;;;;;;;;;;5087249;28;20388;-71
2022/08/05 06:25:42;;;;;;;11.32;1.70;;;;;;;;;;5080443;28;20028;-71
2022/08/05 06:28:08;;;;;;;14.05;2.92;;;;;;;;;;5084746;28;20027;-70
2022/08/05 06:30:34;;;;;;;6.97;1.40;;;;;;;;;;5081085;28;20102;-68
2022/08/05 06:33:00;;;;;;;7.38;1.45;;;;;;;;;;5087311;28;20040;-72
2022/08/05 06:35:26;;;;;;;7.13;1.25;;;;;;;;;;5087653;28;20112;-71
2022/08/05 06:37:52;;;;;;;8.65;1.77;;;;;;;;;;5087811;28;20039;-71
2022/08/05 06:40:18;;;;;;;5.30;1.40;;;;;;;;;;5080827;28;20438;-71
2022/08/05 06:42:45;;;;;;;8.35;1.30;;;;;;;;;;5070414;28;20024;-67
2022/08/05 06:45:11;;;;;;;9.43;2.00;;;;;;;;;;5083981;28;20024;-70
2022/08/05 06:47:37;;;;;;;9.23;1.55;;;;;;;;;;5087179;28;20020;-71
2022/08/05 06:50:03;;;;;;;9.10;1.35;;;;;;;;;;5084523;28;20058;-71
2022/08/05 06:52:29;;;;;;;11.23;1.60;;;;;;;;;;5085313;28;20024;-71
2022/08/05 06:54:55;;;;;;;9.68;1.63;;;;;;;;;;5082643;28;20070;-70
2022/08/05 06:57:22;;;;;;;9.75;1.50;;;;;;;;;;5080766;28;20033;-71
2022/08/05 06:59:48;;;;;;;12.18;1.80;;;;;;;;;;5088278;28;20372;-71
2022/08/05 07:02:14;;;;;;;8.95;1.60;;;;;;;;;;5084385;28;20483;-71
2022/08/05 07:04:40;;;;;;;12.45;1.80;;;;;;;;;;5067918;28;20028;-71
2022/08/05 07:07:06;;;;;;;11.48;1.77;;;;;;;;;;5085126;28;20035;-71
2022/08/05 07:09:32;;;;;;;12.38;1.80;;;;;;;;;;5086900;28;20507;-71
2022/08/05 07:11:58;;;;;;;10.43;1.90;;;;;;;;;;5087271;28;20020;-71
2022/08/05 07:17:09;;;;;;;13.18;1.83;;;;;;;;;;5086176;28;20043;-71
2022/08/05 07:19:36;;;;;;;7.00;1.35;;;;;;;;;;5086966;28;20027;-72
2022/08/05 07:22:02;;;;;;;5.85;1.20;;;;;;;;;;5088130;28;20071;-72
2022/08/05 07:24:28;;;;;;;9.10;1.80;;;;;;;;;;5088642;28;20548;-71
2022/08/05 07:26:54;;;;;;;5.72;1.40;;;;;;;;;;5084083;28;20071;-72
2022/08/05 07:29:20;;;;;;;8.95;2.55;;;;;;;;;;5087690;28;20032;-72
2022/08/05 07:31:46;;;;;;;8.98;1.40;;;;;;;;;;5086864;28;20123;-71
2022/08/05 07:34:12;;;;;;;9.52;2.13;;;;;;;;;;5084264;28;20028;-72
2022/08/05 07:36:39;;;;;;;11.88;1.33;;;;;;;;;;5087885;28;20074;-71
2022/08/05 07:39:05;;;;;;;8.23;1.42;;;;;;;;;;5079099;28;20028;-71
2022/08/05 07:41:32;;;;;;;7.88;1.83;;;;;;;;;;5082862;28;20027;-71
2022/08/05 07:43:58;;;;;;;7.90;1.80;;;;;;;;;;5087853;28;20066;-72
2022/08/05 07:46:29;;;;;;;10.75;2.30;;;;;;;;;;5088550;28;20024;-71
2022/08/05 07:48:56;;;;;;;5.00;1.40;;;;;;;;;;5091266;28;20503;-71
2022/08/05 07:51:22;;;;;;;8.45;1.38;;;;;;;;;;5092809;28;20063;-72
2022/08/05 07:53:48;;;;;;;19.48;3.13;;;;;;;;;;5084131;28;20544;-72
2022/08/05 07:56:14;;;;;;;6.97;1.30;;;;;;;;;;5083129;28;20028;-72
2022/08/05 07:58:40;;;;;;;10.80;1.80;;;;;;;;;;5100532;28;20039;-71
2022/08/05 08:01:06;;;;;;;12.63;2.28;;;;;;;;;;5072190;28;20027;-71
2022/08/05 08:03:33;;;;;;;17.25;2.60;;;;;;;;;;5088969;28;20016;-70
2022/08/05 08:05:59;;;;;;;10.52;2.30;;;;;;;;;;5091497;28;20128;-71
2022/08/05 08:08:25;;;;;;;10.57;1.73;;;;;;;;;;5093188;28;20497;-71
2022/08/05 08:10:54;;;;;;;8.55;1.50;;;;;;;;;;5071668;28;20012;-71
2022/08/05 08:13:20;;;;;;;7.63;1.70;;;;;;;;;;5093715;28;20032;-71
2022/08/05 08:15:46;;;;;;;9.73;1.83;;;;;;;;;;5085476;28;20335;-71
2022/08/05 08:18:12;;;;;;;15.32;2.13;;;;;;;;;;5092171;28;20437;-71
2022/08/05 08:20:39;;;;;;;10.27;1.67;;;;;;;;;;5068950;28;20055;-72
2022/08/05 08:23:06;;;;;;;13.00;2.03;;;;;;;;;;5084931;28;20054;-72
2022/08/05 08:25:33;;;;;;;11.20;2.17;;;;;;;;;;5087621;28;20039;-75
2022/08/05 08:28:00;;;;;;;4.60;1.60;;;;;;;;;;5092398;28;20399;-74
2022/08/05 08:30:26;;;;;;;8.73;2.13;;;;;;;;;;5089857;28;20028;-74
2022/08/05 08:32:52;;;;;;;4.85;1.25;;;;;;;;;;5091145;28;20460;-74
2022/08/05 08:35:19;;;;;;;11.40;1.30;;;;;;;;;;5088989;28;20180;-73
2022/08/05 08:37:45;;;;;;;10.52;1.63;;;;;;;;;;5083029;28;20046;-74
2022/08/05 08:40:12;;;;;;;7.05;2.00;;;;;;;;;;5090387;28;20511;-74
2022/08/05 08:42:39;;;;;;;9.63;1.45;;;;;;;;;;5092035;28;20046;-74
2022/08/05 08:45:06;;;;;;;9.15;1.70;;;;;;;;;;5089927;28;20099;-74
2022/08/05 08:47:33;;;;;;;9.15;1.85;;;;;;;;;;5090960;28;20505;-75
2022/08/05 08:50:00;;;;;;;6.80;1.58;;;;;;;;;;5088331;28;20112;-74
2022/08/05 08:52:30;;;;;;;9.88;1.90;;;;;;;;;;5082402;28;20476;-75
2022/08/05 08:54:56;;;;;;;9.13;1.73;;;;;;;;;;5089120;28;20032;-75
2022/08/05 08:57:23;;;;;;;9.52;1.70;;;;;;;;;;5091695;28;20032;-75
2022/08/05 08:59:49;;;;;;;8.15;1.83;;;;;;;;;;5088933;28;20445;-75
2022/08/05 09:02:17;;;;;;;7.45;1.73;;;;;;;;;;5092444;28;20361;-75
2022/08/05 09:04:44;;;;;;;5.85;1.73;;;;;;;;;;5091198;28;20527;-75
2022/08/05 09:07:10;;;;;;;6.32;1.42;;;;;;;;;;5074179;28;20484;-74
2022/08/05 09:09:36;;;;;;;8.48;1.70;;;;;;;;;;5084129;28;20051;-74
2022/08/05 09:12:04;;;;;;;7.75;1.48;;;;;;;;;;5083291;28;20032;-73
2022/08/05 09:14:31;;;;;;;12.82;1.63;;;;;;;;;;5084673;28;20052;-72
2022/08/05 09:16:59;;;;;;;7.22;1.45;;;;;;;;;;5069731;28;20123;-73
2022/08/05 09:19:25;;;;;;;6.28;1.55;;;;;;;;;;5087243;28;20077;-72
2022/08/05 09:21:51;;;;;;;5.30;1.73;;;;;;;;;;5083410;28;20032;-74
2022/08/05 09:24:17;;;;;;;4.75;1.50;;;;;;;;;;5079589;28;20032;-73
2022/08/05 09:26:46;;;;;;;9.55;1.60;;;;;;;;;;5070315;28;20067;-73
2022/08/05 09:29:13;;;;;;;3.72;1.48;;;;;;;;;;5087377;28;20028;-73
2022/08/05 09:31:42;;;;;;;7.68;1.38;;;;;;;;;;5089758;28;20019;-74
2022/08/05 09:34:09;;;;;;;7.10;1.40;;;;;;;;;;5088627;28;20020;-73
2022/08/05 09:36:40;;;;;;;12.45;2.95;;;;;;;;;;5091579;28;20047;-74
2022/08/05 09:39:08;;;;;;;8.00;1.40;;;;;;;;;;5089145;28;20046;-74
2022/08/05 09:41:34;;;;;;;12.13;1.25;;;;;;;;;;5089164;28;20035;-74
2022/08/05 09:44:00;;;;;;;7.65;1.60;;;;;;;;;;5081122;28;20458;-74
2022/08/05 09:46:26;;;;;;;7.68;1.60;;;;;;;;;;5092068;28;20024;-73
2022/08/05 09:48:53;;;;;;;8.27;1.30;;;;;;;;;;5093813;28;20020;-74
2022/08/05 09:51:30;;;;;;;9.05;1.50;;;;;;;;;;5091094;28;20035;-73
2022/08/05 09:53:57;;;;;;;7.38;1.30;;;;;;;;;;5086864;28;20039;-73
2022/08/05 09:56:24;;;;;;;7.65;1.80;;;;;;;;;;5087309;28;20099;-74
2022/08/05 09:58:57;;;;;;;6.70;1.60;;;;;;;;;;5088308;28;20081;-74
2022/08/05 10:01:23;;;;;;;5.97;1.23;;;;;;;;;;5085668;28;20035;-74
2022/08/05 10:03:58;;;;;;;6.32;1.50;;;;;;;;;;5092684;28;20027;-74
2022/08/05 10:06:25;;;;;;;8.13;1.52;;;;;;;;;;5088747;28;20341;-74
2022/08/05 10:08:51;;;;;;;3.95;1.50;;;;;;;;;;5087887;28;20020;-74
2022/08/05 10:11:17;;;;;;;9.30;1.45;;;;;;;;;;5090011;28;20411;-74
2022/08/05 10:13:44;;;;;;;8.73;1.38;;;;;;;;;;5087447;28;20031;-74
2022/08/05 10:16:34;;;;;;;9.45;1.60;;;;;;;;;;5083561;28;20524;-74
2022/08/05 10:19:00;;;;;;;9.25;1.42;;;;;;;;;;5076559;28;20047;-74
2022/08/05 10:21:26;;;;;;;7.95;1.50;;;;;;;;;;5089654;28;20069;-74
2022/08/05 10:23:53;;;;;;;8.23;2.20;;;;;;;;;;5090753;28;20043;-74
2022/08/05 10:26:19;;;;;;;6.15;1.42;;;;;;;;;;5085621;28;20023;-74
2022/08/05 10:28:46;;;;;;;10.52;1.60;;;;;;;;;;5087749;28;20062;-74
2022/08/05 10:31:14;;;;;;;10.82;1.90;;;;;;;;;;5082583;28;20046;-74
2022/08/05 10:33:40;;;;;;;8.82;1.67;;;;;;;;;;5066228;28;20506;-74
2022/08/05 10:36:06;;;;;;;13.02;1.75;;;;;;;;;;5085078;28;20150;-74
2022/08/05 10:38:34;;;;;;;14.45;1.63;;;;;;;;;;5085099;28;20033;-74
2022/08/05 10:41:03;;;;;;;8.50;1.60;;;;;;;;;;5085420;28;20035;-74
2022/08/05 10:43:33;;;;;;;10.30;1.58;;;;;;;;;;5083687;28;20024;-73
2022/08/05 10:46:00;;;;;;;7.55;1.90;;;;;;;;;;5090557;28;20059;-72
2022/08/05 10:48:30;;;;;;;8.43;1.50;;;;;;;;;;5084074;28;20155;-73
2022/08/05 10:50:58;;;;;;;10.18;1.13;;;;;;;;;;5091050;28;20032;-73
2022/08/05 10:53:37;;;;;;;7.68;1.73;;;;;;;;;;5080215;28;20119;-74
2022/08/05 10:56:06;;;;;;;10.20;1.77;;;;;;;;;;5080412;28;20127;-73
2022/08/05 10:58:33;;;;;;;3.75;1.30;;;;;;;;;;5069076;28;20109;-73
2022/08/05 11:00:59;;;;;;;5.57;1.40;;;;;;;;;;5084120;28;20505;-74
2022/08/05 11:03:26;;;;;;;7.85;1.30;;;;;;;;;;5083106;28;20555;-73
2022/08/05 11:06:08;;;;;;;7.18;1.63;;;;;;;;;;5082672;28;20115;-73
2022/08/05 11:08:35;;;;;;;8.95;1.60;;;;;;;;;;5081108;28;20024;-74
2022/08/05 11:11:19;;;;;;;5.25;1.40;;;;;;;;;;5085670;28;20036;-75
2022/08/05 11:13:46;;;;;;;5.25;1.65;;;;;;;;;;5083996;28;20028;-75
2022/08/05 11:16:22;;;;;;;5.97;1.08;;;;;;;;;;5088357;28;20072;-75
2022/08/05 11:18:48;;;;;;;10.07;1.83;;;;;;;;;;5084836;28;20043;-75
2022/08/05 11:21:33;;;;;;;5.32;1.52;;;;;;;;;;5069914;28;20036;-75
2022/08/05 11:24:07;;;;;;;9.40;1.65;;;;;;;;;;5092035;28;20028;-75
2022/08/05 11:26:34;;;;;;;5.60;1.77;;;;;;;;;;5091651;28;20024;-75
2022/08/05 11:29:04;;;;;;;7.68;1.38;;;;;;;;;;5088309;28;20062;-75
2022/08/05 11:31:31;;;;;;;6.05;1.15;;;;;;;;;;5068766;28;20476;-75
2022/08/05 11:34:05;;;;;;;7.40;1.20;;;;;;;;;;5089162;28;20106;-75
2022/08/05 11:36:40;;;;;;;8.75;1.27;;;;;;;;;;5086333;28;20114;-75
2022/08/05 11:39:08;;;;;;;4.78;1.20;;;;;;;;;;5087682;28;20067;-75
2022/08/05 11:41:35;;;;;;;7.40;1.23;;;;;;;;;;5088855;28;20036;-75
2022/08/05 11:44:05;;;;;;;6.35;1.73;;;;;;;;;;5091411;28;20060;-75
2022/08/05 11:46:40;;;;;;;7.82;1.20;;;;;;;;;;5082959;28;20425;-75
2022/08/05 11:49:07;;;;;;;7.50;1.27;;;;;;;;;;5083670;28;20035;-75
2022/08/05 11:51:34;;;;;;;5.22;1.13;;;;;;;;;;5087203;28;20503;-75
2022/08/05 11:54:00;;;;;;;5.47;1.38;;;;;;;;;;5086589;28;20028;-75
2022/08/05 11:56:42;;;;;;;12.07;1.98;;;;;;;;;;5090899;28;20500;-75
2022/08/05 11:59:12;;;;;;;7.10;1.17;;;;;;;;;;5084399;28;20024;-75
2022/08/05 12:01:51;;;;;;;5.75;1.88;;;;;;;;;;5080724;28;20046;-74
2022/08/05 12:04:17;;;;;;;6.25;1.30;;;;;;;;;;5080581;28;20029;-74
2022/08/05 12:06:43;;;;;;;5.88;1.30;;;;;;;;;;5072697;28;20832;-74
2022/08/05 12:09:09;;;;;;;5.05;1.48;;;;;;;;;;5080130;28;20104;-74
2022/08/05 12:11:35;;;;;;;9.30;1.73;;;;;;;;;;5085069;28;20024;-74
2022/08/05 12:14:03;;;;;;;8.93;1.35;;;;;;;;;;5089231;28;20020;-74
2022/08/05 12:16:38;;;;;;;7.72;1.20;;;;;;;;;;5082491;28;20042;-75
2022/08/05 12:19:05;;;;;;;12.55;1.85;;;;;;;;;;5090326;28;20032;-75
2022/08/05 12:21:31;;;;;;;5.60;1.30;;;;;;;;;;5090737;28;20479;-77
2022/08/05 12:24:05;;;;;;;6.22;1.90;;;;;;;;;;5089700;28;20024;-72
2022/08/05 12:26:32;;;;;;;4.75;1.42;;;;;;;;;;5073263;28;20483;-73
2022/08/05 12:28:58;;;;;;;8.38;1.55;;;;;;;;;;5089051;28;20055;-72
2022/08/05 12:31:24;;;;;;;6.07;1.30;;;;;;;;;;5077584;28;20040;-74
2022/08/05 12:33:50;;;;;;;2.53;1.00;;;;;;;;;;5077821;28;20028;-74
2022/08/05 12:36:17;;;;;;;11.25;1.38;;;;;;;;;;5079143;28;20023;-75
2022/08/05 12:38:43;;;;;;;8.80;1.38;;;;;;;;;;5083430;28;20111;-75
2022/08/05 12:41:11;;;;;;;5.75;1.15;;;;;;;;;;5083276;28;20050;-72
2022/08/05 12:43:50;;;;;;;5.90;1.40;;;;;;;;;;5086756;28;20024;-72
2022/08/05 12:46:20;;;;;;;9.55;1.77;;;;;;;;;;5081407;28;20024;-72
2022/08/05 12:48:46;;;;;;;11.25;1.42;;;;;;;;;;5065324;28;20032;-72
2022/08/05 12:51:16;;;;;;;7.72;1.38;;;;;;;;;;5084042;28;21908;-72
2022/08/05 12:53:43;;;;;;;3.92;1.20;;;;;;;;;;5079964;28;20028;-72
2022/08/05 12:56:21;;;;;;;7.40;1.50;;;;;;;;;;5081583;28;20035;-72
2022/08/05 12:59:07;;;;;;;8.20;1.52;;;;;;;;;;5088241;28;20484;-71
2022/08/05 13:01:35;;;;;;;4.25;1.20;;;;;;;;;;5085074;28;20043;-73
2022/08/05 13:04:03;;;;;;;7.88;1.58;;;;;;;;;;5080395;28;20023;-72
2022/08/05 13:06:29;;;;;;;7.53;1.63;;;;;;;;;;5078374;28;20023;-72
2022/08/05 13:08:56;;;;;;;7.07;1.30;;;;;;;;;;5083945;28;20392;-72
2022/08/05 13:11:28;;;;;;;7.68;1.40;;;;;;;;;;5062489;28;20035;-72
2022/08/05 13:13:56;;;;;;;5.40;1.73;;;;;;;;;;5079526;28;20166;-72
2022/08/05 13:16:22;;;;;;;10.05;1.60;;;;;;;;;;5079127;28;20028;-73
2022/08/05 13:18:52;;;;;;;8.40;1.65;;;;;;;;;;5077554;28;20021;-74
2022/08/05 13:21:18;;;;;;;3.08;1.00;;;;;;;;;;5085853;28;20024;-74
2022/08/05 13:23:44;;;;;;;7.35;1.88;;;;;;;;;;5082608;28;20536;-74
2022/08/05 13:26:10;;;;;;;6.30;1.40;;;;;;;;;;5080189;28;20020;-74
2022/08/05 13:28:37;;;;;;;7.28;1.17;;;;;;;;;;5079251;28;20036;-75
2022/08/05 13:31:03;;;;;;;10.98;2.90;;;;;;;;;;5080565;28;20035;-74
2022/08/05 13:33:29;;;;;;;6.32;1.42;;;;;;;;;;5078284;28;20028;-74
2022/08/05 13:35:55;;;;;;;7.63;1.60;;;;;;;;;;5077544;28;20488;-74
2022/08/05 13:38:23;;;;;;;2.42;1.10;;;;;;;;;;5081242;28;20073;-74
2022/08/05 13:40:49;;;;;;;7.75;1.65;;;;;;;;;;5078755;28;20023;-74
2022/08/05 13:43:16;;;;;;;7.40;1.73;;;;;;;;;;5077350;28;20033;-74
2022/08/05 13:45:42;;;;;;;6.38;1.20;;;;;;;;;;5080849;28;20407;-74
2022/08/05 13:48:09;;;;;;;2.58;1.00;;;;;;;;;;5079263;28;20078;-70
2022/08/05 13:50:35;;;;;;;8.27;1.25;;;;;;;;;;5076843;28;20516;-71
2022/08/05 13:53:01;;;;;;;10.30;1.17;;;;;;;;;;5078118;28;20469;-71
2022/08/05 13:55:27;;;;;;;7.28;1.27;;;;;;;;;;5074017;28;20024;-72
2022/08/05 13:57:53;;;;;;;4.70;1.25;;;;;;;;;;5076930;28;20028;-73
2022/08/05 14:00:20;;;;;;;5.25;1.10;;;;;;;;;;5076261;28;20389;-73
2022/08/05 14:02:46;;;;;;;8.13;1.40;;;;;;;;;;5075061;28;20020;-73
2022/08/05 14:05:14;;;;;;;8.43;1.35;;;;;;;;;;5080466;28;20029;-72
2022/08/05 14:07:41;;;;;;;5.88;1.50;;;;;;;;;;5081070;28;20114;-70
2022/08/05 14:10:07;;;;;;;6.05;1.20;;;;;;;;;;5078189;28;20039;-70
2022/08/05 14:12:33;;;;;;;4.22;1.42;;;;;;;;;;5078510;28;20031;-70
2022/08/05 14:14:59;;;;;;;5.18;0.90;;;;;;;;;;5075808;28;20709;-70
2022/08/05 14:17:26;;;;;;;9.80;1.55;;;;;;;;;;5080132;28;20020;-74
2022/08/05 14:19:54;;;;;;;5.07;1.38;;;;;;;;;;5079382;28;20677;-74
2022/08/05 14:22:21;;;;;;;7.25;1.10;;;;;;;;;;5076284;28;20024;-74
2022/08/05 14:24:47;;;;;;;10.32;1.70;;;;;;;;;;5059587;28;20040;-74
2022/08/05 14:27:13;;;;;;;4.57;1.05;;;;;;;;;;5081778;28;20020;-73
2022/08/05 14:29:39;;;;;;;5.00;1.10;;;;;;;;;;5078322;28;20063;-73
2022/08/05 14:32:06;;;;;;;7.18;1.17;;;;;;;;;;5078306;28;20198;-74
2022/08/05 14:34:32;;;;;;;6.00;1.00;;;;;;;;;;5078299;28;20036;-73
2022/08/05 14:36:58;;;;;;;8.88;1.50;;;;;;;;;;5079060;28;20063;-74
2022/08/05 14:39:24;;;;;;;4.55;1.20;;;;;;;;;;5078657;28;20354;-73
2022/08/05 14:41:51;;;;;;;9.27;2.05;;;;;;;;;;5074693;28;20035;-76
2022/08/05 14:44:17;;;;;;;6.78;1.50;;;;;;;;;;5077408;28;20053;-75